createdAt,value
2019-02-25T00:03:59.231Z,-0.20
2019-02-25T00:06:46.942Z,-0.20
2019-02-25T00:09:35.577Z,-0.20
2019-02-25T00:12:24.044Z,-0.30
2019-02-25T00:15:12.497Z,-0.30
2019-02-25T00:18:00.930Z,-0.30
2019-02-25T00:20:49.116Z,-0.30
2019-02-25T00:23:37.256Z,-0.30
2019-02-25T00:26:25.523Z,-0.30
2019-02-25T00:29:13.459Z,-0.30
2019-02-25T00:32:01.337Z,-0.40
2019-02-25T00:34:49.265Z,-0.40
2019-02-25T00:37:37.559Z,-0.30
2019-02-25T00:40:27.517Z,-0.30
2019-02-25T00:43:14.865Z,-0.30
2019-02-25T00:46:03.800Z,-0.30
2019-02-25T00:48:51.764Z,-0.30
2019-02-25T00:51:39.744Z,-0.30
2019-02-25T00:54:28.327Z,-0.40
2019-02-25T00:57:16.841Z,-0.40
2019-02-25T01:00:04.956Z,-0.40
2019-02-25T01:02:53.470Z,-0.40
2019-02-25T01:05:41.379Z,-0.40
2019-02-25T01:08:30.072Z,-0.40
2019-02-25T01:11:17.967Z,-0.40
2019-02-25T01:14:05.850Z,-0.40
2019-02-25T01:16:53.745Z,-0.40
2019-02-25T01:19:41.715Z,-0.50
2019-02-25T01:22:29.754Z,-0.50
2019-02-25T01:25:17.617Z,-0.50
2019-02-25T01:28:05.472Z,-0.50
2019-02-25T01:30:54.122Z,-0.50
2019-02-25T01:33:42.219Z,-0.50
2019-02-25T01:36:30.108Z,-0.50
2019-02-25T01:39:18.265Z,-0.60
2019-02-25T01:42:06.224Z,-0.60
2019-02-25T01:44:54.613Z,-0.60
2019-02-25T01:47:42.798Z,-0.60
2019-02-25T01:50:30.996Z,-0.70
2019-02-25T01:53:19.290Z,-0.70
2019-02-25T01:56:07.303Z,-0.70
2019-02-25T01:58:55.265Z,-0.80
2019-02-25T02:01:43.130Z,-0.80
2019-02-25T02:04:31.839Z,-0.80
2019-02-25T02:07:19.705Z,-0.80
2019-02-25T02:10:07.598Z,-0.80
2019-02-25T02:12:55.783Z,-0.80
2019-02-25T02:15:44.015Z,-0.80
2019-02-25T02:18:32.297Z,-0.80
2019-02-25T02:21:20.991Z,-0.90
2019-02-25T02:24:09.035Z,-0.80
2019-02-25T02:26:57.182Z,-0.90
2019-02-25T02:29:45.460Z,-0.80
2019-02-25T02:32:33.753Z,-0.80
2019-02-25T02:35:21.813Z,-0.90
2019-02-25T02:38:10.183Z,-0.80
2019-02-25T02:40:58.692Z,-0.90
2019-02-25T02:43:46.770Z,-0.90
2019-02-25T02:46:35.157Z,-0.90
2019-02-25T02:49:23.090Z,-0.90
2019-02-25T02:52:10.998Z,-0.90
2019-02-25T02:54:58.961Z,-1.00
2019-02-25T02:57:46.940Z,-1.00
2019-02-25T03:00:35.229Z,-1.00
2019-02-25T03:03:23.405Z,-1.00
2019-02-25T03:06:11.538Z,-1.10
2019-02-25T03:08:59.938Z,-1.10
2019-02-25T03:11:48.722Z,-1.10
2019-02-25T03:14:37.263Z,-1.10
2019-02-25T03:20:11.367Z,-1.10
2019-02-25T03:22:59.926Z,-1.10
2019-02-25T03:25:47.756Z,-1.10
2019-02-25T03:28:35.581Z,-1.10
2019-02-25T03:31:23.483Z,-1.10
2019-02-25T03:34:11.531Z,-1.10
2019-02-25T03:36:59.503Z,-1.10
2019-02-25T03:39:47.789Z,-1.20
2019-02-25T03:42:36.329Z,-1.20
2019-02-25T03:45:24.968Z,-1.20
2019-02-25T03:48:13.060Z,-1.20
2019-02-25T03:51:01.127Z,-1.20
2019-02-25T03:53:49.141Z,-1.20
2019-02-25T03:56:37.630Z,-1.20
2019-02-25T03:59:26.270Z,-1.20
2019-02-25T04:02:14.866Z,-1.20
2019-02-25T04:05:03.209Z,-1.20
2019-02-25T04:07:51.646Z,-1.20
2019-02-25T04:10:39.598Z,-1.20
2019-02-25T04:13:28.214Z,-1.20
2019-02-25T04:16:16.748Z,-1.30
2019-02-25T04:19:05.288Z,-1.30
2019-02-25T04:21:53.256Z,-1.30
2019-02-25T04:24:41.611Z,-1.30
2019-02-25T04:27:30.054Z,-1.30
2019-02-25T04:30:18.392Z,-1.30
2019-02-25T04:33:06.480Z,-1.30
2019-02-25T04:35:54.519Z,-1.40
2019-02-25T04:38:42.643Z,-1.40
2019-02-25T04:41:30.779Z,-1.40
2019-02-25T04:44:19.005Z,-1.40
2019-02-25T04:47:07.019Z,-1.40
2019-02-25T04:49:55.477Z,-1.40
2019-02-25T04:52:43.722Z,-1.40
2019-02-25T04:55:31.865Z,-1.40
2019-02-25T04:58:19.778Z,-1.40
2019-02-25T05:01:07.795Z,-1.40
2019-02-25T05:03:55.739Z,-1.50
2019-02-25T05:06:43.677Z,-1.40
2019-02-25T05:09:31.852Z,-1.50
2019-02-25T05:12:20.094Z,-1.50
2019-02-25T05:15:08.205Z,-1.50
2019-02-25T05:17:56.079Z,-1.50
2019-02-25T05:20:44.054Z,-1.50
2019-02-25T05:23:32.730Z,-1.50
2019-02-25T05:26:20.902Z,-1.50
2019-02-25T05:29:09.188Z,-1.50
2019-02-25T05:31:57.303Z,-1.50
2019-02-25T05:34:45.090Z,-1.50
2019-02-25T05:37:33.304Z,-1.50
2019-02-25T05:40:21.546Z,-1.50
2019-02-25T05:43:10.059Z,-1.50
2019-02-25T05:45:57.692Z,-1.50
2019-02-25T05:48:46.280Z,-1.60
2019-02-25T05:51:34.612Z,-1.60
2019-02-25T05:54:23.288Z,-1.60
2019-02-25T05:57:11.159Z,-1.60
2019-02-25T05:59:59.392Z,-1.60
2019-02-25T06:02:47.375Z,-1.60
2019-02-25T06:05:35.935Z,-1.60
2019-02-25T06:08:23.754Z,-1.60
2019-02-25T06:11:11.419Z,-1.60
2019-02-25T06:14:00.359Z,-1.60
2019-02-25T06:16:48.295Z,-1.60
2019-02-25T06:19:37.022Z,-1.60
2019-02-25T06:22:25.259Z,-1.50
2019-02-25T06:25:13.442Z,-1.50
2019-02-25T06:28:02.203Z,-1.50
2019-02-25T06:30:50.065Z,-1.40
2019-02-25T06:33:37.855Z,-1.40
2019-02-25T06:36:25.888Z,-1.30
2019-02-25T06:39:14.576Z,-1.20
2019-02-25T06:42:02.589Z,-1.20
2019-02-25T06:44:50.878Z,-1.20
2019-02-25T06:47:39.172Z,-1.10
2019-02-25T06:50:27.012Z,-1.10
2019-02-25T06:53:15.348Z,-1.00
2019-02-25T06:56:05.828Z,-1.00
2019-02-25T06:58:54.436Z,-0.90
2019-02-25T07:01:42.493Z,-0.90
2019-02-25T07:04:49.873Z,-0.80
2019-02-25T07:11:03.330Z,-0.70
2019-02-25T07:14:16.623Z,-0.60
2019-02-25T07:17:27.067Z,-0.50
2019-02-25T07:23:35.173Z,-0.30
2019-02-25T07:26:30.278Z,-0.20
2019-02-25T07:32:51.426Z,0.00
2019-02-25T07:35:51.820Z,0.10
2019-02-25T07:38:55.943Z,0.20
2019-02-25T07:48:39.170Z,0.50
2019-02-25T07:51:49.614Z,0.60
2019-02-25T08:00:48.806Z,1.10
2019-02-25T08:10:24.069Z,1.70
2019-02-25T08:19:55.231Z,2.30
2019-02-25T08:26:29.882Z,2.70
2019-02-25T08:29:37.279Z,2.90
2019-02-25T08:32:37.046Z,3.10
2019-02-25T08:35:43.975Z,3.30
2019-02-25T08:42:01.540Z,3.80
2019-02-25T08:45:08.990Z,4.10
2019-02-25T08:51:21.103Z,4.60
2019-02-25T08:54:09.399Z,4.80
2019-02-25T08:56:57.759Z,5.00
2019-02-25T09:02:31.308Z,5.40
2019-02-25T09:05:19.984Z,5.60
2019-02-25T09:08:08.534Z,5.80
2019-02-25T09:10:57.091Z,6.00
2019-02-25T09:13:44.920Z,6.20
2019-02-25T09:16:32.991Z,6.40
2019-02-25T09:19:21.140Z,6.50
2019-02-25T09:22:09.220Z,6.70
2019-02-25T09:24:57.352Z,6.80
2019-02-25T09:27:45.088Z,7.10
2019-02-25T09:30:33.222Z,7.30
2019-02-25T09:33:21.018Z,7.60
2019-02-25T09:36:09.106Z,7.80
2019-02-25T09:38:57.365Z,8.10
2019-02-25T09:41:45.351Z,8.40
2019-02-25T09:44:33.391Z,8.70
2019-02-25T09:47:21.963Z,9.00
2019-02-25T09:50:10.158Z,9.40
2019-02-25T09:52:58.895Z,9.70
2019-02-25T09:55:46.900Z,10.10
2019-02-25T09:58:34.991Z,10.40
2019-02-25T10:01:23.139Z,10.80
2019-02-25T10:04:11.132Z,11.10
2019-02-25T10:07:02.383Z,11.40
2019-02-25T10:09:49.848Z,11.70
2019-02-25T10:12:37.586Z,12.00
2019-02-25T10:15:25.667Z,12.20
2019-02-25T10:18:14.178Z,12.40
2019-02-25T10:21:02.678Z,12.60
2019-02-25T10:23:50.468Z,12.80
2019-02-25T10:26:38.499Z,13.00
2019-02-25T10:29:27.095Z,13.20
2019-02-25T10:32:15.298Z,13.40
2019-02-25T10:35:03.378Z,13.60
2019-02-25T10:37:51.270Z,13.70
2019-02-25T10:40:39.801Z,13.80
2019-02-25T10:43:29.562Z,14.00
2019-02-25T10:46:17.700Z,14.20
2019-02-25T10:49:11.599Z,14.40
2019-02-25T10:51:55.897Z,14.50
2019-02-25T10:54:44.467Z,14.60
2019-02-25T10:57:32.244Z,14.70
2019-02-25T11:03:13.481Z,15.00
2019-02-25T11:06:03.313Z,15.10
2019-02-25T11:11:55.404Z,15.40
2019-02-25T11:14:43.487Z,15.60
2019-02-25T11:17:31.280Z,15.70
2019-02-25T11:20:19.578Z,15.90
2019-02-25T11:23:07.693Z,16.00
2019-02-25T11:25:56.293Z,16.20
2019-02-25T11:28:45.787Z,16.30
2019-02-25T11:31:33.909Z,16.40
2019-02-25T11:34:22.900Z,16.60
2019-02-25T11:37:11.518Z,16.70
2019-02-25T11:40:01.870Z,16.80
2019-02-25T11:42:50.236Z,17.00
2019-02-25T11:45:38.473Z,17.10
2019-02-25T11:48:26.460Z,17.20
2019-02-25T11:51:14.996Z,17.30
2019-02-25T11:54:03.415Z,17.30
2019-02-25T11:56:51.794Z,17.40
2019-02-25T11:59:40.151Z,17.50
2019-02-25T12:02:29.376Z,17.50
2019-02-25T12:05:17.182Z,17.50
2019-02-25T12:08:05.634Z,17.60
2019-02-25T12:10:54.243Z,17.60
2019-02-25T12:13:42.329Z,17.70
2019-02-25T12:16:30.256Z,17.80
2019-02-25T12:19:18.326Z,17.80
2019-02-25T12:22:06.305Z,17.90
2019-02-25T12:24:54.386Z,18.00
2019-02-25T12:27:42.657Z,18.00
2019-02-25T12:30:31.152Z,18.10
2019-02-25T12:33:19.727Z,18.20
2019-02-25T12:36:07.702Z,18.30
2019-02-25T12:38:56.476Z,18.40
2019-02-25T12:41:44.301Z,18.50
2019-02-25T12:44:32.962Z,18.50
2019-02-25T12:47:20.710Z,18.60
2019-02-25T12:50:09.218Z,18.70
2019-02-25T12:52:57.368Z,18.80
2019-02-25T12:55:45.375Z,18.90
2019-02-25T12:58:33.214Z,18.90
2019-02-25T13:01:21.254Z,19.00
2019-02-25T13:04:09.646Z,19.10
2019-02-25T13:06:57.880Z,19.10
2019-02-25T13:09:46.566Z,19.20
2019-02-25T13:12:35.231Z,19.20
2019-02-25T13:15:23.225Z,19.30
2019-02-25T13:18:11.918Z,19.40
2019-02-25T13:21:00.005Z,19.40
2019-02-25T13:23:47.999Z,19.50
2019-02-25T13:26:36.611Z,19.60
2019-02-25T13:29:25.956Z,19.70
2019-02-25T13:32:14.483Z,19.70
2019-02-25T13:35:02.949Z,19.70
2019-02-25T13:37:50.764Z,19.80
2019-02-25T13:40:38.989Z,19.90
2019-02-25T13:43:27.613Z,19.90
2019-02-25T13:46:15.867Z,20.00
2019-02-25T13:49:03.739Z,20.10
2019-02-25T13:51:52.186Z,20.20
2019-02-25T13:54:40.335Z,20.20
2019-02-25T13:57:28.646Z,20.20
2019-02-25T14:00:16.853Z,20.30
2019-02-25T14:03:05.374Z,20.30
2019-02-25T14:05:53.615Z,20.40
2019-02-25T14:08:41.599Z,20.50
2019-02-25T14:11:29.701Z,20.50
2019-02-25T14:14:17.941Z,20.60
2019-02-25T14:17:06.129Z,20.70
2019-02-25T14:19:54.206Z,20.80
2019-02-25T14:22:41.964Z,20.80
2019-02-25T14:25:30.034Z,20.90
2019-02-25T14:28:18.433Z,20.90
2019-02-25T14:31:06.682Z,21.00
2019-02-25T14:33:55.023Z,21.00
2019-02-25T14:36:42.652Z,20.90
2019-02-25T14:39:32.714Z,20.90
2019-02-25T14:42:25.718Z,20.70
2019-02-25T14:45:11.228Z,20.50
2019-02-25T14:47:59.880Z,20.40
2019-02-25T14:50:49.309Z,20.30
2019-02-25T14:53:37.472Z,20.10
2019-02-25T14:56:25.931Z,20.00
2019-02-25T14:59:15.612Z,19.80
2019-02-25T15:02:06.330Z,19.60
2019-02-25T15:04:55.000Z,19.20
2019-02-25T15:07:44.644Z,18.90
2019-02-25T15:10:34.002Z,18.70
2019-02-25T15:13:24.244Z,18.40
2019-02-25T15:16:12.171Z,18.00
2019-02-25T15:19:00.627Z,17.80
2019-02-25T15:21:50.125Z,17.60
2019-02-25T15:24:39.097Z,17.40
2019-02-25T15:27:28.160Z,17.30
2019-02-25T15:30:16.990Z,17.10
2019-02-25T15:33:06.578Z,16.90
2019-02-25T15:35:54.738Z,16.80
2019-02-25T15:38:43.395Z,16.60
2019-02-25T15:41:31.874Z,16.40
2019-02-25T15:44:19.787Z,16.20
2019-02-25T15:47:08.612Z,16.10
2019-02-25T15:50:01.470Z,15.90
2019-02-25T15:52:47.913Z,15.80
2019-02-25T15:55:35.854Z,15.60
2019-02-25T15:58:23.860Z,15.40
2019-02-25T16:01:12.658Z,15.20
2019-02-25T16:04:02.461Z,15.10
2019-02-25T16:06:51.291Z,14.90
2019-02-25T16:09:40.857Z,14.80
2019-02-25T16:12:29.668Z,14.70
2019-02-25T16:15:19.571Z,14.60
2019-02-25T16:18:07.548Z,14.40
2019-02-25T16:20:57.511Z,14.30
2019-02-25T16:23:45.701Z,14.20
2019-02-25T16:26:36.042Z,14.00
2019-02-25T16:29:23.972Z,13.90
2019-02-25T16:32:12.518Z,13.70
2019-02-25T16:35:02.685Z,13.50
2019-02-25T16:37:53.088Z,13.30
2019-02-25T16:40:40.877Z,13.10
2019-02-25T16:43:29.001Z,12.90
2019-02-25T16:46:18.440Z,12.70
2019-02-25T16:49:06.597Z,12.50
2019-02-25T16:51:55.589Z,12.30
2019-02-25T16:54:44.855Z,12.00
2019-02-25T16:57:33.278Z,11.90
2019-02-25T17:00:24.825Z,11.70
2019-02-25T17:06:11.642Z,11.30
2019-02-25T17:09:01.103Z,11.10
2019-02-25T17:11:49.828Z,10.90
2019-02-25T17:14:40.478Z,10.80
2019-02-25T17:17:28.167Z,10.60
2019-02-25T17:20:16.485Z,10.40
2019-02-25T17:23:04.853Z,10.20
2019-02-25T17:25:53.353Z,10.00
2019-02-25T17:28:41.672Z,9.80
2019-02-25T17:31:32.253Z,9.60
2019-02-25T17:34:20.985Z,9.40
2019-02-25T17:42:44.815Z,8.90
2019-02-25T17:45:34.579Z,8.70
2019-02-25T17:48:23.818Z,8.50
2019-02-25T17:51:11.633Z,8.40
2019-02-25T17:54:00.744Z,8.30
2019-02-25T17:56:51.382Z,8.10
2019-02-25T17:59:39.289Z,8.10
2019-02-25T18:02:27.482Z,7.90
2019-02-25T18:05:18.540Z,7.80
2019-02-25T18:10:58.635Z,7.50
2019-02-25T18:13:49.020Z,7.40
2019-02-25T18:16:39.090Z,7.30
2019-02-25T18:19:27.170Z,7.10
2019-02-25T18:22:16.726Z,7.00
2019-02-25T18:25:05.531Z,6.90
2019-02-25T18:30:46.424Z,6.60
2019-02-25T18:33:34.495Z,6.50
2019-02-25T18:36:24.511Z,6.40
2019-02-25T18:39:12.852Z,6.40
2019-02-25T18:42:00.916Z,6.30
2019-02-25T18:44:53.538Z,6.20
2019-02-25T18:50:33.631Z,6.00
2019-02-25T18:53:22.599Z,6.00
2019-02-25T18:56:14.136Z,5.90
2019-02-25T18:59:08.693Z,5.70
2019-02-25T19:01:51.994Z,5.70
2019-02-25T19:04:41.793Z,5.60
2019-02-25T19:07:31.467Z,5.50
2019-02-25T19:10:24.289Z,5.40
2019-02-25T19:13:13.336Z,5.30
2019-02-25T19:16:02.616Z,5.30
2019-02-25T19:18:51.300Z,5.20
2019-02-25T19:21:41.327Z,5.20
2019-02-25T19:24:33.250Z,5.10
2019-02-25T19:27:22.583Z,5.10
2019-02-25T19:30:11.652Z,5.00
2019-02-25T19:33:11.255Z,4.90
2019-02-25T19:35:58.153Z,4.80
2019-02-25T19:38:46.398Z,4.70
2019-02-25T19:41:35.615Z,4.50
2019-02-25T19:44:23.956Z,4.40
2019-02-25T19:47:14.049Z,4.40
2019-02-25T19:50:02.835Z,4.30
2019-02-25T19:52:51.194Z,4.10
2019-02-25T19:55:40.753Z,4.10
2019-02-25T19:58:33.331Z,4.00
2019-02-25T20:01:19.330Z,3.90
2019-02-25T20:06:54.395Z,3.80
2019-02-25T20:09:42.658Z,3.70
2019-02-25T20:12:35.719Z,3.60
2019-02-25T20:15:26.055Z,3.50
2019-02-25T20:21:12.710Z,3.40
2019-02-25T20:24:01.213Z,3.40
2019-02-25T20:26:52.599Z,3.30
2019-02-25T20:29:40.852Z,3.30
2019-02-25T20:32:29.612Z,3.30
2019-02-25T20:35:19.895Z,3.20
2019-02-25T20:38:08.020Z,3.20
2019-02-25T20:40:57.440Z,3.10
2019-02-25T20:43:47.219Z,3.10
2019-02-25T20:46:35.884Z,3.00
2019-02-25T20:49:26.405Z,3.00
2019-02-25T20:52:16.049Z,2.90
2019-02-25T20:55:05.948Z,2.90
2019-02-25T20:57:54.944Z,2.90
2019-02-25T21:00:44.200Z,2.80
2019-02-25T21:03:33.605Z,2.80
2019-02-25T21:09:09.296Z,2.80
2019-02-25T21:11:58.269Z,2.80
2019-02-25T21:14:46.533Z,2.80
2019-02-25T21:17:35.512Z,2.80
2019-02-25T21:20:26.103Z,2.80
2019-02-25T21:23:15.425Z,2.70
2019-02-25T21:26:06.280Z,2.70
2019-02-25T21:28:55.990Z,2.70
2019-02-25T21:31:47.250Z,2.70
2019-02-25T21:34:34.020Z,2.70
2019-02-25T21:37:23.388Z,2.70
2019-02-25T21:40:12.690Z,2.70
2019-02-25T21:43:01.042Z,2.60
2019-02-25T21:48:41.582Z,2.60
2019-02-25T21:54:15.697Z,2.60
2019-02-25T21:57:05.465Z,2.60
2019-02-25T21:59:56.298Z,2.50
2019-02-25T22:02:45.861Z,2.50
2019-02-25T22:05:35.356Z,2.50
2019-02-25T22:08:26.244Z,2.50
2019-02-25T22:11:16.848Z,2.50
2019-02-25T22:14:04.367Z,2.50
2019-02-25T22:16:54.448Z,2.50
2019-02-25T22:19:43.708Z,2.50
2019-02-25T22:22:33.234Z,2.40
2019-02-25T22:25:22.076Z,2.40
2019-02-25T22:28:10.116Z,2.50
2019-02-25T22:30:58.083Z,2.50
2019-02-25T22:33:46.098Z,2.50
2019-02-25T22:36:34.007Z,2.60
2019-02-25T22:39:25.777Z,2.60
2019-02-25T22:42:16.111Z,2.70
2019-02-25T22:45:04.363Z,2.80
2019-02-25T22:47:52.756Z,2.80
2019-02-25T22:50:41.497Z,2.90
2019-02-25T22:53:29.635Z,3.00
2019-02-25T22:56:18.340Z,3.00
2019-02-25T22:59:08.036Z,3.00
2019-02-25T23:01:56.044Z,3.00
2019-02-25T23:04:46.945Z,3.00
2019-02-25T23:07:38.805Z,2.90
2019-02-25T23:10:24.830Z,2.90
2019-02-25T23:13:13.147Z,2.80
2019-02-25T23:16:01.656Z,2.80
2019-02-25T23:18:49.492Z,2.70
2019-02-25T23:21:38.379Z,2.70
2019-02-25T23:24:30.033Z,2.60
2019-02-25T23:27:17.162Z,2.50
2019-02-25T23:30:08.594Z,2.50
2019-02-25T23:32:56.829Z,2.40
2019-02-25T23:35:46.582Z,2.30
2019-02-25T23:38:34.490Z,2.30
2019-02-25T23:41:22.835Z,2.20
2019-02-25T23:44:13.233Z,2.20
2019-02-25T23:47:02.458Z,2.10
2019-02-25T23:49:52.351Z,2.10
2019-02-25T23:52:40.901Z,2.00
2019-02-25T23:55:29.850Z,2.00
2019-02-25T23:58:20.215Z,2.00
